Time,TemperatureF,DewpointF,PressureIn,WindDirection,WindDirectionDegrees,WindSpeedMPH,WindSpeedGustMPH,Humidity,HourlyPrecipIn,Conditions,Clouds,dailyrainin,SoftwareType,DateUTC
2013-03-09 00:00:00,32.2,31.4,30.26,NNW,331,0.0,0.0,97,0.00,,,0.00,WeatherCatV1.12B45,2013-03-09 08:00:00,
2013-03-09 00:05:00,32.1,31.3,30.26,NNW,331,0.0,0.0,97,0.00,,,0.00,WeatherCatV1.12B45,2013-03-09 08:05:00,
2013-03-09 00:10:00,31.9,30.9,30.26,NNW,331,0.0,0.0,96,0.00,,,0.00,WeatherCatV1.12B45,2013-03-09 08:10:00,
2013-03-09 00:15:00,31.7,30.7,30.26,NNW,331,0.0,0.0,96,0.00,,,0.00,WeatherCatV1.12B45,2013-03-09 08:15:00,
2013-03-09 00:20:00,31.6,30.6,30.26,NNW,331,0.0,0.0,96,0.00,,,0.00,WeatherCatV1.12B45,2013-03-09 08:20:00,
2013-03-09 00:25:00,31.5,30.7,30.26,NNW,331,0.0,0.0,97,0.00,,,0.00,WeatherCatV1.12B45,2013-03-09 08:25:00,
2013-03-09 00:30:00,31.4,30.6,30.26,NNW,331,0.0,0.0,97,0.00,,,0.00,WeatherCatV1.12B45,2013-03-09 08:30:00,
2013-03-09 00:36:00,31.2,30.5,30.26,NNW,331,0.0,0.0,97,0.00,,,0.00,WeatherCatV1.12B45,2013-03-09 08:36:00,
2013-03-09 00:41:00,31.1,30.4,30.26,NNW,331,0.0,0.0,97,0.00,,,0.00,WeatherCatV1.12B45,2013-03-09 08:41:00,
2013-03-09 00:46:00,31.0,30.2,30.26,NNW,331,0.0,0.0,97,0.00,,,0.00,WeatherCatV1.12B45,2013-03-09 08:46:00,
2013-03-09 00:51:00,30.8,30.1,30.27,NNW,331,0.0,0.0,97,0.00,,,0.00,WeatherCatV1.12B45,2013-03-09 08:51:00,
2013-03-09 00:56:00,30.7,30.0,30.27,NNW,331,0.0,0.0,97,0.00,,,0.00,WeatherCatV1.12B45,2013-03-09 08:56:00,
2013-03-09 01:01:00,30.6,29.9,30.27,NNW,331,0.0,0.0,97,0.00,,,0.00,WeatherCatV1.12B45,2013-03-09 09:01:00,
2013-03-09 01:06:00,30.5,29.8,30.27,NNW,331,0.0,0.0,97,0.00,,,0.00,WeatherCatV1.12B45,2013-03-09 09:06:00,
2013-03-09 01:11:00,30.4,29.7,30.27,NNW,331,0.0,0.0,97,0.00,,,0.00,WeatherCatV1.12B45,2013-03-09 09:11:00,
2013-03-09 01:16:00,30.3,29.6,30.28,NNW,331,0.0,0.0,97,0.00,,,0.00,WeatherCatV1.12B45,2013-03-09 09:16:00,
2013-03-09 01:21:00,30.3,29.8,30.28,NNW,331,0.0,0.0,98,0.00,,,0.00,WeatherCatV1.12B45,2013-03-09 09:21:00,
2013-03-09 01:26:00,30.2,29.5,30.28,NNW,331,0.0,0.0,97,0.00,,,0.00,WeatherCatV1.12B45,2013-03-09 09:26:00,
2013-03-09 01:31:00,30.1,29.4,30.28,NNW,331,0.0,0.0,97,0.00,,,0.00,WeatherCatV1.12B45,2013-03-09 09:31:00,
2013-03-09 01:36:00,30.0,29.3,30.28,NNW,331,0.0,0.0,97,0.00,,,0.00,WeatherCatV1.12B45,2013-03-09 09:36:00,
2013-03-09 01:41:00,29.9,29.2,30.28,NNW,331,0.0,0.0,97,0.00,,,0.00,WeatherCatV1.12B45,2013-03-09 09:41:00,
2013-03-09 01:46:00,29.8,29.1,30.28,NNW,331,0.0,0.0,97,0.00,,,0.00,WeatherCatV1.12B45,2013-03-09 09:46:00,
2013-03-09 01:51:00,29.7,29.2,30.29,NNW,331,0.0,0.0,98,0.00,,,0.00,WeatherCatV1.12B45,2013-03-09 09:51:00,
2013-03-09 01:56:00,29.7,29.2,30.29,NNW,331,0.0,0.0,98,0.00,,,0.00,WeatherCatV1.12B45,2013-03-09 09:56:00,
2013-03-09 02:01:00,29.7,29.2,30.28,NNW,331,0.0,0.0,98,0.00,,,0.00,WeatherCatV1.12B45,2013-03-09 10:01:00,
2013-03-09 02:06:00,29.6,29.1,30.28,NNW,331,0.0,0.0,98,0.00,,,0.00,WeatherCatV1.12B45,2013-03-09 10:06:00,
2013-03-09 02:11:00,29.4,28.9,30.29,NNW,331,0.0,0.0,98,0.00,,,0.00,WeatherCatV1.12B45,2013-03-09 10:11:00,
2013-03-09 02:16:00,29.3,28.8,30.29,NNW,331,0.0,0.0,98,0.00,,,0.00,WeatherCatV1.12B45,2013-03-09 10:16:00,
2013-03-09 02:21:00,29.2,28.5,30.29,NNW,331,0.0,0.0,97,0.00,,,0.00,WeatherCatV1.12B45,2013-03-09 10:21:00,
2013-03-09 02:26:00,29.1,28.6,30.29,NNW,331,0.0,0.0,98,0.00,,,0.00,WeatherCatV1.12B45,2013-03-09 10:26:00,
2013-03-09 02:31:00,29.1,28.6,30.29,NNW,331,0.0,0.0,98,0.00,,,0.00,WeatherCatV1.12B45,2013-03-09 10:31:00,
2013-03-09 02:36:00,29.0,28.5,30.29,NNW,331,0.0,0.0,98,0.00,,,0.00,WeatherCatV1.12B45,2013-03-09 10:36:00,
2013-03-09 02:41:00,29.0,28.5,30.29,NNW,331,0.0,0.0,98,0.00,,,0.00,WeatherCatV1.12B45,2013-03-09 10:41:00,
2013-03-09 02:46:00,29.0,28.5,30.30,NNW,331,0.0,0.0,98,0.00,,,0.00,WeatherCatV1.12B45,2013-03-09 10:46:00,
2013-03-09 02:51:00,29.0,28.5,30.30,NNW,331,0.0,0.0,98,0.00,,,0.00,WeatherCatV1.12B45,2013-03-09 10:51:00,
2013-03-09 02:56:00,28.9,28.4,30.30,NNW,331,0.0,0.0,98,0.00,,,0.00,WeatherCatV1.12B45,2013-03-09 10:56:00,
2013-03-09 03:01:00,28.9,28.4,30.30,NNW,331,0.0,0.0,98,0.00,,,0.00,WeatherCatV1.12B45,2013-03-09 11:01:00,
2013-03-09 03:06:00,28.8,28.3,30.30,NNW,331,0.0,0.0,98,0.00,,,0.00,WeatherCatV1.12B45,2013-03-09 11:06:00,
2013-03-09 03:11:00,28.7,28.2,30.30,NNW,331,0.0,0.0,98,0.00,,,0.00,WeatherCatV1.12B45,2013-03-09 11:11:00,
2013-03-09 03:16:00,28.6,28.1,30.30,NNW,331,0.0,0.0,98,0.00,,,0.00,WeatherCatV1.12B45,2013-03-09 11:16:00,
2013-03-09 03:21:00,28.5,28.0,30.30,NNW,331,0.0,0.0,98,0.00,,,0.00,WeatherCatV1.12B45,2013-03-09 11:21:00,
2013-03-09 03:26:00,28.5,28.0,30.30,NNW,331,0.0,0.0,98,0.00,,,0.00,WeatherCatV1.12B45,2013-03-09 11:26:00,
2013-03-09 03:31:00,28.5,28.0,30.31,NNW,331,0.0,0.0,98,0.00,,,0.00,WeatherCatV1.12B45,2013-03-09 11:31:00,
2013-03-09 03:36:00,28.5,28.0,30.31,NNW,331,0.0,0.0,98,0.00,,,0.00,WeatherCatV1.12B45,2013-03-09 11:36:00,
2013-03-09 03:41:00,28.5,28.0,30.31,NNW,331,0.0,0.0,98,0.00,,,0.00,WeatherCatV1.12B45,2013-03-09 11:41:00,
2013-03-09 03:46:00,28.5,28.0,30.31,NNW,331,0.0,0.0,98,0.00,,,0.00,WeatherCatV1.12B45,2013-03-09 11:46:00,
2013-03-09 03:51:00,28.4,27.9,30.32,NNW,331,0.0,0.0,98,0.00,,,0.00,WeatherCatV1.12B45,2013-03-09 11:51:00,
2013-03-09 03:56:00,28.4,27.9,30.32,NNW,331,0.0,0.0,98,0.00,,,0.00,WeatherCatV1.12B45,2013-03-09 11:56:00,
2013-03-09 04:01:00,28.4,28.2,30.32,NNW,331,0.0,0.0,99,0.00,,,0.00,WeatherCatV1.12B45,2013-03-09 12:01:00,
2013-03-09 04:06:00,28.4,28.2,30.32,NNW,331,0.0,0.0,99,0.00,,,0.00,WeatherCatV1.12B45,2013-03-09 12:06:00,
2013-03-09 04:11:00,28.4,28.2,30.32,NNW,331,0.0,0.0,99,0.00,,,0.00,WeatherCatV1.12B45,2013-03-09 12:11:00,
2013-03-09 04:16:00,28.5,28.3,30.32,NNW,331,0.0,0.0,99,0.00,,,0.00,WeatherCatV1.12B45,2013-03-09 12:16:00,
2013-03-09 04:21:00,28.6,28.4,30.32,NNW,331,0.0,0.0,99,0.00,,,0.00,WeatherCatV1.12B45,2013-03-09 12:21:00,
2013-03-09 04:26:00,28.7,28.5,30.32,NNW,331,0.0,0.0,99,0.00,,,0.00,WeatherCatV1.12B45,2013-03-09 12:26:00,
2013-03-09 04:31:00,28.8,28.6,30.33,NNW,331,0.0,0.0,99,0.00,,,0.00,WeatherCatV1.12B45,2013-03-09 12:31:00,
2013-03-09 04:36:00,28.9,28.7,30.33,NNW,331,0.0,0.0,99,0.00,,,0.00,WeatherCatV1.12B45,2013-03-09 12:36:00,
2013-03-09 04:41:00,29.0,28.8,30.33,NNW,331,0.0,0.0,99,0.00,,,0.00,WeatherCatV1.12B45,2013-03-09 12:41:00,
2013-03-09 04:47:00,29.0,28.8,30.33,NNW,331,0.0,0.0,99,0.00,,,0.00,WeatherCatV1.12B45,2013-03-09 12:47:00,
2013-03-09 04:52:00,29.1,28.9,30.33,NNW,331,0.0,0.0,99,0.00,,,0.00,WeatherCatV1.12B45,2013-03-09 12:52:00,
2013-03-09 04:57:00,29.2,29.0,30.33,NNW,331,0.0,0.0,99,0.00,,,0.00,WeatherCatV1.12B45,2013-03-09 12:57:00,
2013-03-09 05:02:00,29.3,29.1,30.34,NNW,331,0.0,0.0,99,0.00,,,0.00,WeatherCatV1.12B45,2013-03-09 13:02:00,
2013-03-09 05:07:00,29.4,29.2,30.34,NNW,331,0.0,0.0,99,0.00,,,0.00,WeatherCatV1.12B45,2013-03-09 13:07:00,
2013-03-09 05:12:00,29.5,29.3,30.34,NNW,331,0.0,0.0,99,0.00,,,0.00,WeatherCatV1.12B45,2013-03-09 13:12:00,
2013-03-09 05:17:00,29.7,29.5,30.35,NNW,331,0.0,0.0,99,0.00,,,0.00,WeatherCatV1.12B45,2013-03-09 13:17:00,
2013-03-09 05:22:00,29.8,29.6,30.35,NNW,331,0.0,0.0,99,0.00,,,0.00,WeatherCatV1.12B45,2013-03-09 13:22:00,
2013-03-09 05:27:00,29.8,29.6,30.35,NNW,331,0.0,0.0,99,0.00,,,0.00,WeatherCatV1.12B45,2013-03-09 13:27:00,
2013-03-09 05:32:00,29.9,29.7,30.35,NNW,331,0.0,0.0,99,0.00,,,0.00,WeatherCatV1.12B45,2013-03-09 13:32:00,
2013-03-09 05:37:00,29.9,29.7,30.35,NNW,331,0.0,0.0,99,0.00,,,0.00,WeatherCatV1.12B45,2013-03-09 13:37:00,
2013-03-09 05:42:00,29.9,29.9,30.36,NNW,331,0.0,0.0,100,0.00,,,0.00,WeatherCatV1.12B45,2013-03-09 13:42:00,
2013-03-09 05:47:00,29.9,29.7,30.36,NNW,331,0.0,0.0,99,0.00,,,0.00,WeatherCatV1.12B45,2013-03-09 13:47:00,
2013-03-09 05:52:00,29.8,29.6,30.36,NNW,331,0.0,0.0,99,0.00,,,0.00,WeatherCatV1.12B45,2013-03-09 13:52:00,
2013-03-09 05:57:00,29.8,29.6,30.36,NNW,331,0.0,0.0,99,0.00,,,0.00,WeatherCatV1.12B45,2013-03-09 13:57:00,
2013-03-09 06:02:00,29.6,29.4,30.36,NNW,331,0.0,0.0,99,0.00,,,0.00,WeatherCatV1.12B45,2013-03-09 14:02:00,
2013-03-09 06:07:00,29.6,29.4,30.36,NNW,331,0.0,0.0,99,0.00,,,0.00,WeatherCatV1.12B45,2013-03-09 14:07:00,
2013-03-09 06:12:00,29.5,29.3,30.36,NNW,331,0.0,0.0,99,0.00,,,0.00,WeatherCatV1.12B45,2013-03-09 14:12:00,
2013-03-09 06:17:00,29.4,29.2,30.36,NNW,331,0.0,0.0,99,0.00,,,0.00,WeatherCatV1.12B45,2013-03-09 14:17:00,
2013-03-09 06:22:00,29.3,29.1,30.37,NNW,331,0.0,0.0,99,0.00,,,0.00,WeatherCatV1.12B45,2013-03-09 14:22:00,
2013-03-09 06:27:00,29.2,29.0,30.37,NNW,331,0.0,0.0,99,0.00,,,0.00,WeatherCatV1.12B45,2013-03-09 14:27:00,
2013-03-09 06:32:00,29.1,28.9,30.37,NNW,331,0.0,0.0,99,0.00,,,0.00,WeatherCatV1.12B45,2013-03-09 14:32:00,
2013-03-09 06:37:00,29.0,28.8,30.37,NNW,331,0.0,0.0,99,0.00,,,0.00,WeatherCatV1.12B45,2013-03-09 14:37:00,
2013-03-09 06:42:00,29.0,28.8,30.38,NNW,331,0.0,0.0,99,0.00,,,0.00,WeatherCatV1.12B45,2013-03-09 14:42:00,
2013-03-09 06:47:00,28.8,28.6,30.38,NNW,331,0.0,0.0,99,0.00,,,0.00,WeatherCatV1.12B45,2013-03-09 14:47:00,
2013-03-09 06:52:00,28.7,28.5,30.38,NNW,331,0.0,0.0,99,0.00,,,0.00,WeatherCatV1.12B45,2013-03-09 14:52:00,
2013-03-09 06:57:00,28.6,28.4,30.39,NNW,331,0.0,0.0,99,0.00,,,0.00,WeatherCatV1.12B45,2013-03-09 14:57:00,
2013-03-09 07:02:00,28.5,28.0,30.39,NNW,331,0.0,0.0,98,0.00,,,0.00,WeatherCatV1.12B45,2013-03-09 15:02:00,
2013-03-09 07:07:00,28.4,28.2,30.39,NNW,331,0.0,0.0,99,0.00,,,0.00,WeatherCatV1.12B45,2013-03-09 15:07:00,
2013-03-09 07:12:00,28.3,28.1,30.39,NNW,331,0.0,0.0,99,0.00,,,0.00,WeatherCatV1.12B45,2013-03-09 15:12:00,
2013-03-09 07:17:00,28.3,28.1,30.39,NNW,331,0.0,0.0,99,0.00,,,0.00,WeatherCatV1.12B45,2013-03-09 15:17:00,
2013-03-09 07:22:00,28.3,28.1,30.40,NNW,331,0.0,0.0,99,0.00,,,0.00,WeatherCatV1.12B45,2013-03-09 15:22:00,
2013-03-09 07:27:00,28.3,28.1,30.40,NNW,331,0.0,0.0,99,0.00,,,0.00,WeatherCatV1.12B45,2013-03-09 15:27:00,
2013-03-09 07:32:00,28.3,28.1,30.40,NNW,331,0.0,0.0,99,0.00,,,0.00,WeatherCatV1.12B45,2013-03-09 15:32:00,
2013-03-09 07:37:00,28.3,28.1,30.40,NNW,331,0.0,0.0,99,0.00,,,0.00,WeatherCatV1.12B45,2013-03-09 15:37:00,
2013-03-09 07:42:00,28.5,28.3,30.40,NNW,331,0.0,1.0,99,0.00,,,0.00,WeatherCatV1.12B45,2013-03-09 15:42:00,
2013-03-09 07:47:00,28.7,28.5,30.41,NNW,331,0.0,0.0,99,0.00,,,0.00,WeatherCatV1.12B45,2013-03-09 15:47:00,
2013-03-09 07:52:00,29.0,29.0,30.41,NNW,331,0.0,0.0,100,0.00,,,0.00,WeatherCatV1.12B45,2013-03-09 15:52:00,
2013-03-09 07:57:00,29.4,29.4,30.41,NNW,331,0.0,0.0,100,0.00,,,0.00,WeatherCatV1.12B45,2013-03-09 15:57:00,
2013-03-09 08:02:00,29.8,29.8,30.42,NNW,331,0.0,1.0,100,0.00,,,0.00,WeatherCatV1.12B45,2013-03-09 16:02:00,
2013-03-09 08:07:00,30.1,30.1,30.42,NNW,331,0.0,0.0,100,0.00,,,0.00,WeatherCatV1.12B45,2013-03-09 16:07:00,
2013-03-09 08:12:00,30.5,30.5,30.42,NNW,331,0.0,0.0,100,0.00,,,0.00,WeatherCatV1.12B45,2013-03-09 16:12:00,
2013-03-09 08:17:00,30.9,30.9,30.42,NNW,331,0.0,0.0,100,0.00,,,0.00,WeatherCatV1.12B45,2013-03-09 16:17:00,
2013-03-09 08:22:00,31.3,31.3,30.41,NNW,333,0.0,0.0,100,0.00,,,0.00,WeatherCatV1.12B45,2013-03-09 16:22:00,
2013-03-09 08:27:00,31.5,31.5,30.42,NNW,333,0.0,0.0,100,0.00,,,0.00,WeatherCatV1.12B45,2013-03-09 16:27:00,
2013-03-09 08:32:00,31.8,31.8,30.41,NNE,19,0.0,1.0,100,0.00,,,0.00,WeatherCatV1.12B45,2013-03-09 16:32:00,
2013-03-09 08:37:00,32.1,32.1,30.42,NNE,19,0.0,0.0,100,0.00,,,0.00,WeatherCatV1.12B45,2013-03-09 16:37:00,
2013-03-09 08:42:00,32.4,32.4,30.42,NE,48,0.0,1.0,100,0.00,,,0.00,WeatherCatV1.12B45,2013-03-09 16:42:00,
2013-03-09 08:47:00,32.8,32.8,30.42,ENE,61,0.0,1.0,100,0.00,,,0.00,WeatherCatV1.12B45,2013-03-09 16:47:00,
2013-03-09 08:53:00,33.2,33.2,30.42,SSW,202,1.0,3.0,100,0.00,,,0.00,WeatherCatV1.12B45,2013-03-09 16:53:00,
2013-03-09 08:58:00,33.9,33.9,30.43,SW,218,2.0,3.0,100,0.00,,,0.00,WeatherCatV1.12B45,2013-03-09 16:58:00,
2013-03-09 09:03:00,34.5,34.5,30.42,SW,225,0.0,2.0,100,0.00,,,0.00,WeatherCatV1.12B45,2013-03-09 17:03:00,
2013-03-09 09:08:00,35.0,35.0,30.42,SW,221,1.0,2.0,100,0.00,,,0.00,WeatherCatV1.12B45,2013-03-09 17:08:00,
2013-03-09 09:13:00,35.3,35.3,30.43,SW,229,1.0,2.0,100,0.00,,,0.00,WeatherCatV1.12B45,2013-03-09 17:13:00,
2013-03-09 09:18:00,35.8,35.8,30.43,SSW,208,1.0,3.0,100,0.00,,,0.00,WeatherCatV1.12B45,2013-03-09 17:18:00,
2013-03-09 09:23:00,36.4,36.4,30.43,SSW,206,0.0,1.0,100,0.00,,,0.00,WeatherCatV1.12B45,2013-03-09 17:23:00,
2013-03-09 09:28:00,36.9,36.9,30.43,SW,218,0.0,3.0,100,0.00,,,0.00,WeatherCatV1.12B45,2013-03-09 17:28:00,
2013-03-09 09:33:00,37.3,37.3,30.43,SW,227,1.0,2.0,100,0.00,,,0.00,WeatherCatV1.12B45,2013-03-09 17:33:00,
2013-03-09 09:38:00,37.8,37.8,30.44,SSW,209,0.0,2.0,100,0.00,,,0.00,WeatherCatV1.12B45,2013-03-09 17:38:00,
2013-03-09 09:43:00,38.6,38.6,30.44,SSW,207,3.0,4.0,100,0.00,,,0.00,WeatherCatV1.12B45,2013-03-09 17:43:00,
2013-03-09 09:48:00,39.3,39.3,30.44,SSW,196,0.0,4.0,100,0.00,,,0.00,WeatherCatV1.12B45,2013-03-09 17:48:00,
2013-03-09 09:53:00,40.2,40.2,30.44,SSE,167,1.0,2.0,100,0.00,,,0.00,WeatherCatV1.12B45,2013-03-09 17:53:00,
2013-03-09 09:58:00,41.1,40.3,30.44,South,181,3.0,3.0,97,0.00,,,0.00,WeatherCatV1.12B45,2013-03-09 17:58:00,
2013-03-09 10:03:00,41.8,40.2,30.44,SSW,192,2.0,3.0,94,0.00,,,0.00,WeatherCatV1.12B45,2013-03-09 18:03:00,
2013-03-09 10:08:00,42.3,40.4,30.44,SSE,150,2.0,3.0,93,0.00,,,0.00,WeatherCatV1.12B45,2013-03-09 18:08:00,
2013-03-09 10:13:00,42.9,40.5,30.44,South,171,2.0,2.0,91,0.00,,,0.00,WeatherCatV1.12B45,2013-03-09 18:13:00,
2013-03-09 10:18:00,43.4,40.7,30.45,South,180,1.0,2.0,90,0.00,,,0.00,WeatherCatV1.12B45,2013-03-09 18:18:00,
2013-03-09 10:23:00,43.8,40.8,30.45,SW,222,0.0,1.0,89,0.00,,,0.00,WeatherCatV1.12B45,2013-03-09 18:23:00,
2013-03-09 10:28:00,44.2,41.2,30.45,SW,217,1.0,4.0,89,0.00,,,0.00,WeatherCatV1.12B45,2013-03-09 18:28:00,
2013-03-09 10:33:00,44.6,41.3,30.45,SW,223,4.0,4.0,88,0.00,,,0.00,WeatherCatV1.12B45,2013-03-09 18:33:00,
2013-03-09 10:38:00,45.0,40.8,30.45,SW,215,0.0,4.0,85,0.00,,,0.00,WeatherCatV1.12B45,2013-03-09 18:38:00,
2013-03-09 10:43:00,45.5,41.3,30.45,SSW,213,3.0,3.0,85,0.00,,,0.00,WeatherCatV1.12B45,2013-03-09 18:43:00,
2013-03-09 10:48:00,45.9,41.6,30.45,SW,222,3.0,4.0,85,0.00,,,0.00,WeatherCatV1.12B45,2013-03-09 18:48:00,
2013-03-09 10:53:00,46.5,42.2,30.45,SSW,206,1.0,3.0,85,0.00,,,0.00,WeatherCatV1.12B45,2013-03-09 18:53:00,
2013-03-09 10:58:00,47.1,42.2,30.46,SW,227,2.0,5.0,83,0.00,,,0.00,WeatherCatV1.12B45,2013-03-09 18:58:00,
2013-03-09 11:03:00,47.7,42.5,30.46,South,180,1.0,4.0,82,0.00,,,0.00,WeatherCatV1.12B45,2013-03-09 19:03:00,
2013-03-09 11:08:00,48.5,43.3,30.45,South,175,1.0,2.0,82,0.00,,,0.00,WeatherCatV1.12B45,2013-03-09 19:08:00,
2013-03-09 11:13:00,49.2,43.6,30.45,South,182,0.0,2.0,81,0.00,,,0.00,WeatherCatV1.12B45,2013-03-09 19:13:00,
2013-03-09 11:18:00,49.9,44.0,30.45,SSW,204,0.0,4.0,80,0.00,,,0.00,WeatherCatV1.12B45,2013-03-09 19:18:00,
2013-03-09 11:23:00,50.6,44.3,30.45,South,169,3.0,3.0,79,0.00,,,0.00,WeatherCatV1.12B45,2013-03-09 19:23:00,
2013-03-09 11:28:00,51.5,44.5,30.46,South,170,0.0,2.0,77,0.00,,,0.00,WeatherCatV1.12B45,2013-03-09 19:28:00,
2013-03-09 11:33:00,51.9,43.5,30.46,SW,234,1.0,2.0,73,0.00,,,0.00,WeatherCatV1.12B45,2013-03-09 19:33:00,
2013-03-09 11:38:00,52.1,43.4,30.46,SW,219,0.0,2.0,72,0.00,,,0.00,WeatherCatV1.12B45,2013-03-09 19:38:00,
2013-03-09 11:43:00,52.1,44.1,30.46,SW,224,1.0,1.0,74,0.00,,,0.00,WeatherCatV1.12B45,2013-03-09 19:43:00,
2013-03-09 11:48:00,53.0,44.6,30.46,South,182,1.0,3.0,73,0.00,,,0.00,WeatherCatV1.12B45,2013-03-09 19:48:00,
2013-03-09 11:53:00,53.8,45.0,30.46,SW,214,2.0,3.0,72,0.00,,,0.00,WeatherCatV1.12B45,2013-03-09 19:53:00,
2013-03-09 11:58:00,54.4,44.1,30.46,SW,220,0.0,0.0,68,0.00,,,0.00,WeatherCatV1.12B45,2013-03-09 19:58:00,
2013-03-09 12:03:00,54.9,45.3,30.46,SE,140,4.0,4.0,70,0.00,,,0.00,WeatherCatV1.12B45,2013-03-09 20:03:00,
2013-03-09 12:08:00,55.6,43.6,30.45,South,182,1.0,1.0,64,0.00,,,0.00,WeatherCatV1.12B45,2013-03-09 20:08:00,
2013-03-09 12:13:00,56.2,44.2,30.45,SSW,205,1.0,1.0,64,0.00,,,0.00,WeatherCatV1.12B45,2013-03-09 20:13:00,
2013-03-09 12:18:00,56.9,45.7,30.45,South,175,1.0,4.0,66,0.00,,,0.00,WeatherCatV1.12B45,2013-03-09 20:18:00,
2013-03-09 12:23:00,57.5,45.0,30.45,South,175,1.0,1.0,63,0.00,,,0.00,WeatherCatV1.12B45,2013-03-09 20:23:00,
2013-03-09 12:28:00,57.9,43.7,30.45,SSW,203,1.0,3.0,59,0.00,,,0.00,WeatherCatV1.12B45,2013-03-09 20:28:00,
2013-03-09 12:33:00,58.4,44.1,30.45,SSE,165,0.0,2.0,59,0.00,,,0.00,WeatherCatV1.12B45,2013-03-09 20:33:00,
2013-03-09 12:38:00,59.1,43.9,30.45,SW,223,2.0,4.0,57,0.00,,,0.00,WeatherCatV1.12B45,2013-03-09 20:38:00,
2013-03-09 12:44:00,58.3,43.1,30.45,SW,228,0.0,1.0,57,0.00,,,0.00,WeatherCatV1.12B45,2013-03-09 20:44:00,
2013-03-09 12:49:00,58.4,43.7,30.45,SW,221,1.0,2.0,58,0.00,,,0.00,WeatherCatV1.12B45,2013-03-09 20:49:00,
2013-03-09 12:54:00,58.8,44.9,30.45,SW,217,2.0,3.0,60,0.00,,,0.00,WeatherCatV1.12B45,2013-03-09 20:54:00,
2013-03-09 12:59:00,58.9,43.7,30.45,SW,229,2.0,4.0,57,0.00,,,0.00,WeatherCatV1.12B45,2013-03-09 20:59:00,
2013-03-09 13:04:00,59.1,44.3,30.44,SSW,194,1.0,3.0,58,0.00,,,0.00,WeatherCatV1.12B45,2013-03-09 21:04:00,
2013-03-09 13:09:00,59.6,43.9,30.45,SSW,202,1.0,2.0,56,0.00,,,0.00,WeatherCatV1.12B45,2013-03-09 21:09:00,
2013-03-09 13:14:00,59.5,41.9,30.44,SW,214,0.0,4.0,52,0.00,,,0.00,WeatherCatV1.12B45,2013-03-09 21:14:00,
2013-03-09 13:19:00,59.5,43.8,30.44,SSW,213,2.0,3.0,56,0.00,,,0.00,WeatherCatV1.12B45,2013-03-09 21:19:00,
2013-03-09 13:24:00,59.6,45.3,30.44,SSE,163,0.0,2.0,59,0.00,,,0.00,WeatherCatV1.12B45,2013-03-09 21:24:00,
2013-03-09 13:29:00,60.6,44.3,30.44,SW,225,1.0,4.0,55,0.00,,,0.00,WeatherCatV1.12B45,2013-03-09 21:29:00,
2013-03-09 13:34:00,61.1,44.3,30.44,SSE,162,1.0,3.0,54,0.00,,,0.00,WeatherCatV1.12B45,2013-03-09 21:34:00,
2013-03-09 13:39:00,61.9,43.1,30.44,ESE,115,0.0,2.0,50,0.00,,,0.00,WeatherCatV1.12B45,2013-03-09 21:39:00,
2013-03-09 13:44:00,62.2,44.9,30.44,SE,145,3.0,3.0,53,0.00,,,0.00,WeatherCatV1.12B45,2013-03-09 21:44:00,
2013-03-09 13:49:00,62.7,44.8,30.44,SSE,159,0.0,2.0,52,0.00,,,0.00,WeatherCatV1.12B45,2013-03-09 21:49:00,
2013-03-09 13:54:00,62.9,45.0,30.44,SSW,205,1.0,5.0,52,0.00,,,0.00,WeatherCatV1.12B45,2013-03-09 21:54:00,
2013-03-09 13:59:00,63.2,43.7,30.44,SW,223,0.0,3.0,49,0.00,,,0.00,WeatherCatV1.12B45,2013-03-09 21:59:00,
2013-03-09 14:04:00,63.1,43.6,30.44,SE,139,0.0,3.0,49,0.00,,,0.00,WeatherCatV1.12B45,2013-03-09 22:04:00,
2013-03-09 14:09:00,63.0,43.5,30.44,WSW,247,4.0,6.0,49,0.00,,,0.00,WeatherCatV1.12B45,2013-03-09 22:09:00,
2013-03-09 14:14:00,62.6,42.1,30.44,SW,229,4.0,4.0,47,0.00,,,0.00,WeatherCatV1.12B45,2013-03-09 22:14:00,
2013-03-09 14:22:00,61.5,43.7,30.44,SSE,163,3.0,3.0,52,0.00,,,0.00,WeatherCatV1.12B45,2013-03-09 22:22:00,
2013-03-09 14:27:00,61.9,43.6,30.44,SSE,165,2.0,3.0,51,0.00,,,0.00,WeatherCatV1.12B45,2013-03-09 22:27:00,
2013-03-09 14:32:00,62.5,42.0,30.44,South,189,3.0,4.0,47,0.00,,,0.00,WeatherCatV1.12B45,2013-03-09 22:32:00,
2013-03-09 14:38:00,63.0,44.1,30.44,WSW,245,3.0,6.0,50,0.00,,,0.00,WeatherCatV1.12B45,2013-03-09 22:38:00,
2013-03-09 14:43:00,63.6,44.1,30.44,South,176,2.0,2.0,49,0.00,,,0.00,WeatherCatV1.12B45,2013-03-09 22:43:00,
2013-03-09 14:48:00,63.7,43.6,30.44,SSW,210,1.0,2.0,48,0.00,,,0.00,WeatherCatV1.12B45,2013-03-09 22:48:00,
2013-03-09 14:53:00,63.2,42.6,30.44,SW,217,0.0,2.0,47,0.00,,,0.00,WeatherCatV1.12B45,2013-03-09 22:53:00,
2013-03-09 14:58:00,62.4,44.0,30.44,SW,217,0.0,1.0,51,0.00,,,0.00,WeatherCatV1.12B45,2013-03-09 22:58:00,
2013-03-09 15:03:00,61.7,41.3,30.44,SW,217,0.0,0.0,47,0.00,,,0.00,WeatherCatV1.12B45,2013-03-09 23:03:00,
2013-03-09 15:08:00,60.2,39.9,30.43,SW,223,0.0,1.0,47,0.00,,,0.00,WeatherCatV1.12B45,2013-03-09 23:08:00,
2013-03-09 15:13:00,58.7,41.1,30.43,WSW,241,0.0,3.0,52,0.00,,,0.00,WeatherCatV1.12B45,2013-03-09 23:13:00,
2013-03-09 15:18:00,57.9,42.3,30.43,SSE,161,2.0,2.0,56,0.00,,,0.00,WeatherCatV1.12B45,2013-03-09 23:18:00,
2013-03-09 15:23:00,57.8,43.1,30.43,South,190,0.0,1.0,58,0.00,,,0.00,WeatherCatV1.12B45,2013-03-09 23:23:00,
2013-03-09 15:28:00,59.2,45.8,30.43,SSE,150,0.0,1.0,61,0.00,,,0.00,WeatherCatV1.12B45,2013-03-09 23:28:00,
2013-03-09 15:33:00,61.3,44.0,30.43,SSE,150,0.0,1.0,53,0.00,,,0.00,WeatherCatV1.12B45,2013-03-09 23:33:00,
2013-03-09 15:38:00,63.2,43.7,30.43,NNW,329,5.0,5.0,49,0.00,,,0.00,WeatherCatV1.12B45,2013-03-09 23:38:00,
2013-03-09 15:43:00,63.5,42.3,30.43,WNW,295,0.0,2.0,46,0.00,,,0.00,WeatherCatV1.12B45,2013-03-09 23:43:00,
2013-03-09 15:48:00,63.4,42.3,30.43,NW,315,1.0,5.0,46,0.00,,,0.00,WeatherCatV1.12B45,2013-03-09 23:48:00,
2013-03-09 15:53:00,63.4,42.8,30.43,NW,321,2.0,5.0,47,0.00,,,0.00,WeatherCatV1.12B45,2013-03-09 23:53:00,
2013-03-09 15:58:00,62.9,40.6,30.43,SSW,213,1.0,4.0,44,0.00,,,0.00,WeatherCatV1.12B45,2013-03-09 23:58:00,
2013-03-09 16:03:00,62.5,40.9,30.43,WSW,248,4.0,8.0,45,0.00,,,0.00,WeatherCatV1.12B45,2013-03-10 00:03:00,
2013-03-09 16:08:00,62.0,41.5,30.43,SW,221,2.0,5.0,47,0.00,,,0.00,WeatherCatV1.12B45,2013-03-10 00:08:00,
2013-03-09 16:13:00,61.8,40.8,30.43,West,269,6.0,8.0,46,0.00,,,0.00,WeatherCatV1.12B45,2013-03-10 00:13:00,
2013-03-09 16:18:00,61.8,42.4,30.43,South,171,1.0,5.0,49,0.00,,,0.00,WeatherCatV1.12B45,2013-03-10 00:18:00,
2013-03-09 16:23:00,62.4,42.4,30.44,SSW,201,1.0,7.0,48,0.00,,,0.00,WeatherCatV1.12B45,2013-03-10 00:23:00,
2013-03-09 16:28:00,62.6,42.6,30.44,South,190,4.0,5.0,48,0.00,,,0.00,WeatherCatV1.12B45,2013-03-10 00:28:00,
2013-03-09 16:33:00,62.4,40.2,30.44,WSW,250,1.0,3.0,44,0.00,,,0.00,WeatherCatV1.12B45,2013-03-10 00:33:00,
2013-03-09 16:38:00,62.1,41.1,30.44,South,184,0.0,2.0,46,0.00,,,0.00,WeatherCatV1.12B45,2013-03-10 00:38:00,
2013-03-09 16:43:00,62.2,41.7,30.44,SSW,200,2.0,3.0,47,0.00,,,0.00,WeatherCatV1.12B45,2013-03-10 00:43:00,
2013-03-09 16:48:00,62.2,41.7,30.44,SSW,207,2.0,4.0,47,0.00,,,0.00,WeatherCatV1.12B45,2013-03-10 00:48:00,
2013-03-09 16:53:00,61.3,39.2,30.44,SW,235,2.0,6.0,44,0.00,,,0.00,WeatherCatV1.12B45,2013-03-10 00:53:00,
2013-03-09 16:58:00,60.2,40.4,30.44,WSW,249,5.0,5.0,48,0.00,,,0.00,WeatherCatV1.12B45,2013-03-10 00:58:00,
2013-03-09 17:03:00,58.9,39.2,30.44,WSW,240,3.0,6.0,48,0.00,,,0.00,WeatherCatV1.12B45,2013-03-10 01:03:00,
2013-03-09 17:08:00,57.9,39.4,30.44,WSW,251,3.0,4.0,50,0.00,,,0.00,WeatherCatV1.12B45,2013-03-10 01:08:00,
2013-03-09 17:13:00,57.2,39.2,30.44,SW,223,1.0,5.0,51,0.00,,,0.00,WeatherCatV1.12B45,2013-03-10 01:13:00,
2013-03-09 17:18:00,56.6,39.2,30.44,SW,232,0.0,5.0,52,0.00,,,0.00,WeatherCatV1.12B45,2013-03-10 01:18:00,
2013-03-09 17:23:00,56.2,40.2,30.45,WSW,252,1.0,3.0,55,0.00,,,0.00,WeatherCatV1.12B45,2013-03-10 01:23:00,
2013-03-09 17:28:00,55.7,39.8,30.45,West,270,5.0,5.0,55,0.00,,,0.00,WeatherCatV1.12B45,2013-03-10 01:28:00,
2013-03-09 17:33:00,55.2,39.8,30.45,NW,312,1.0,4.0,56,0.00,,,0.00,WeatherCatV1.12B45,2013-03-10 01:33:00,
2013-03-09 17:38:00,54.6,39.7,30.45,West,271,2.0,3.0,57,0.00,,,0.00,WeatherCatV1.12B45,2013-03-10 01:38:00,
2013-03-09 17:43:00,53.9,39.5,30.45,West,261,3.0,5.0,58,0.00,,,0.00,WeatherCatV1.12B45,2013-03-10 01:43:00,
2013-03-09 17:48:00,53.4,39.0,30.46,West,270,0.0,3.0,58,0.00,,,0.00,WeatherCatV1.12B45,2013-03-10 01:48:00,
2013-03-09 17:53:00,52.7,38.8,30.46,WNW,302,2.0,3.0,59,0.00,,,0.00,WeatherCatV1.12B45,2013-03-10 01:53:00,
2013-03-09 17:58:00,52.4,38.9,30.46,WSW,242,0.0,2.0,60,0.00,,,0.00,WeatherCatV1.12B45,2013-03-10 01:58:00,
2013-03-09 18:03:00,52.1,39.5,30.46,WNW,297,0.0,1.0,62,0.00,,,0.00,WeatherCatV1.12B45,2013-03-10 02:03:00,
2013-03-09 18:08:00,51.8,39.6,30.47,WNW,282,0.0,1.0,63,0.00,,,0.00,WeatherCatV1.12B45,2013-03-10 02:08:00,
2013-03-09 18:13:00,51.4,40.0,30.47,WNW,282,0.0,0.0,65,0.00,,,0.00,WeatherCatV1.12B45,2013-03-10 02:13:00,
2013-03-09 18:18:00,50.9,39.6,30.47,WNW,282,0.0,0.0,65,0.00,,,0.00,WeatherCatV1.12B45,2013-03-10 02:18:00,
2013-03-09 18:24:00,50.3,39.8,30.47,WNW,282,0.0,0.0,67,0.00,,,0.00,WeatherCatV1.12B45,2013-03-10 02:24:00,
2013-03-09 18:29:00,49.7,38.8,30.47,WNW,282,0.0,0.0,66,0.00,,,0.00,WeatherCatV1.12B45,2013-03-10 02:29:00,
2013-03-09 18:34:00,49.1,39.0,30.47,WNW,286,1.0,2.0,68,0.00,,,0.00,WeatherCatV1.12B45,2013-03-10 02:34:00,
2013-03-09 18:39:00,48.5,39.2,30.47,WNW,286,0.0,0.0,70,0.00,,,0.00,WeatherCatV1.12B45,2013-03-10 02:39:00,
2013-03-09 18:44:00,47.9,39.0,30.47,West,275,0.0,1.0,71,0.00,,,0.00,WeatherCatV1.12B45,2013-03-10 02:44:00,
2013-03-09 18:49:00,47.6,39.0,30.47,West,275,0.0,0.0,72,0.00,,,0.00,WeatherCatV1.12B45,2013-03-10 02:49:00,
2013-03-09 18:54:00,47.3,38.7,30.48,West,275,0.0,0.0,72,0.00,,,0.00,WeatherCatV1.12B45,2013-03-10 02:54:00,
2013-03-09 18:59:00,46.8,39.0,30.48,West,275,0.0,0.0,74,0.00,,,0.00,WeatherCatV1.12B45,2013-03-10 02:59:00,
2013-03-09 19:04:00,46.4,38.6,30.48,West,275,0.0,0.0,74,0.00,,,0.00,WeatherCatV1.12B45,2013-03-10 03:04:00,
2013-03-09 19:09:00,46.0,38.5,30.49,West,275,0.0,0.0,75,0.00,,,0.00,WeatherCatV1.12B45,2013-03-10 03:09:00,
2013-03-09 19:14:00,45.6,38.1,30.49,West,275,0.0,0.0,75,0.00,,,0.00,WeatherCatV1.12B45,2013-03-10 03:14:00,
2013-03-09 19:19:00,45.1,37.7,30.49,West,275,0.0,0.0,75,0.00,,,0.00,WeatherCatV1.12B45,2013-03-10 03:19:00,
2013-03-09 19:24:00,44.8,38.0,30.49,North,5,0.0,1.0,77,0.00,,,0.00,WeatherCatV1.12B45,2013-03-10 03:24:00,
2013-03-09 19:29:00,44.6,38.2,30.49,NNE,16,0.0,0.0,78,0.00,,,0.00,WeatherCatV1.12B45,2013-03-10 03:29:00,
2013-03-09 19:34:00,44.4,38.0,30.49,NNE,16,0.0,0.0,78,0.00,,,0.00,WeatherCatV1.12B45,2013-03-10 03:34:00,
2013-03-09 19:39:00,44.2,38.1,30.49,NNE,15,0.0,0.0,79,0.00,,,0.00,WeatherCatV1.12B45,2013-03-10 03:39:00,
2013-03-09 19:44:00,44.0,38.2,30.49,NNE,16,0.0,0.0,80,0.00,,,0.00,WeatherCatV1.12B45,2013-03-10 03:44:00,
2013-03-09 19:49:00,43.6,37.5,30.49,NNE,16,0.0,0.0,79,0.00,,,0.00,WeatherCatV1.12B45,2013-03-10 03:49:00,
2013-03-09 19:54:00,43.3,37.6,30.49,NNE,15,0.0,0.0,80,0.00,,,0.00,WeatherCatV1.12B45,2013-03-10 03:54:00,
2013-03-09 19:59:00,42.9,37.2,30.49,NNE,16,0.0,0.0,80,0.00,,,0.00,WeatherCatV1.12B45,2013-03-10 03:59:00,
2013-03-09 20:04:00,42.5,36.8,30.49,NNE,16,0.0,0.0,80,0.00,,,0.00,WeatherCatV1.12B45,2013-03-10 04:04:00,
2013-03-09 20:09:00,42.0,36.9,30.49,NNE,32,0.0,0.0,82,0.00,,,0.00,WeatherCatV1.12B45,2013-03-10 04:09:00,
2013-03-09 20:14:00,41.5,36.7,30.49,NNE,32,0.0,0.0,83,0.00,,,0.00,WeatherCatV1.12B45,2013-03-10 04:14:00,
2013-03-09 20:19:00,41.1,36.3,30.49,NNE,32,0.0,0.0,83,0.00,,,0.00,WeatherCatV1.12B45,2013-03-10 04:19:00,
2013-03-09 20:24:00,40.7,36.2,30.49,NNE,32,0.0,1.0,84,0.00,,,0.00,WeatherCatV1.12B45,2013-03-10 04:24:00,
2013-03-09 20:29:00,40.3,36.2,30.49,NE,53,0.0,0.0,85,0.00,,,0.00,WeatherCatV1.12B45,2013-03-10 04:29:00,
2013-03-09 20:34:00,39.9,36.1,30.49,NE,53,1.0,1.0,86,0.00,,,0.00,WeatherCatV1.12B45,2013-03-10 04:34:00,
2013-03-09 20:39:00,39.6,36.1,30.49,NE,53,0.0,0.0,87,0.00,,,0.00,WeatherCatV1.12B45,2013-03-10 04:39:00,
2013-03-09 20:44:00,39.5,36.2,30.49,NE,53,0.0,0.0,88,0.00,,,0.00,WeatherCatV1.12B45,2013-03-10 04:44:00,
2013-03-09 20:49:00,39.5,36.5,30.49,NE,53,0.0,0.0,89,0.00,,,0.00,WeatherCatV1.12B45,2013-03-10 04:49:00,
2013-03-09 20:54:00,39.5,36.2,30.49,NE,53,0.0,0.0,88,0.00,,,0.00,WeatherCatV1.12B45,2013-03-10 04:54:00,
2013-03-09 20:59:00,39.4,36.1,30.49,NE,53,0.0,0.0,88,0.00,,,0.00,WeatherCatV1.12B45,2013-03-10 04:59:00,
2013-03-09 21:00:00,39.3,36.0,30.49,NE,53,0.0,0.0,88,0.00,,,0.00,WeatherCatV1.12B45,2013-03-10 05:00:00,
2013-03-09 21:05:00,39.2,36.0,30.50,NE,53,0.0,0.0,88,0.00,,,0.00,WeatherCatV1.12B45,2013-03-10 05:05:00,
2013-03-09 21:10:00,38.9,35.7,30.50,NE,53,0.0,0.0,88,0.00,,,0.00,WeatherCatV1.12B45,2013-03-10 05:10:00,
2013-03-09 21:15:00,38.6,35.4,30.50,NE,53,0.0,0.0,88,0.00,,,0.00,WeatherCatV1.12B45,2013-03-10 05:15:00,
2013-03-09 21:20:00,38.3,34.8,30.51,NE,53,0.0,0.0,87,0.00,,,0.00,WeatherCatV1.12B45,2013-03-10 05:20:00,
2013-03-09 21:25:00,37.9,34.4,30.51,NE,53,0.0,0.0,87,0.00,,,0.00,WeatherCatV1.12B45,2013-03-10 05:25:00,
2013-03-09 21:30:00,37.6,33.8,30.50,NE,53,0.0,0.0,86,0.00,,,0.00,WeatherCatV1.12B45,2013-03-10 05:30:00,
2013-03-09 21:35:00,37.4,34.2,30.50,NE,53,0.0,0.0,88,0.00,,,0.00,WeatherCatV1.12B45,2013-03-10 05:35:00,
2013-03-09 21:40:00,37.1,34.2,30.50,NE,53,0.0,0.0,89,0.00,,,0.00,WeatherCatV1.12B45,2013-03-10 05:40:00,
2013-03-09 21:45:00,36.9,34.2,30.51,NE,53,0.0,0.0,90,0.00,,,0.00,WeatherCatV1.12B45,2013-03-10 05:45:00,
2013-03-09 21:50:00,36.6,33.9,30.51,NE,53,0.0,0.0,90,0.00,,,0.00,WeatherCatV1.12B45,2013-03-10 05:50:00,
2013-03-09 21:55:00,36.3,33.9,30.51,NE,53,0.0,0.0,91,0.00,,,0.00,WeatherCatV1.12B45,2013-03-10 05:55:00,
2013-03-09 22:00:00,36.1,33.7,30.51,NE,53,0.0,0.0,91,0.00,,,0.00,WeatherCatV1.12B45,2013-03-10 06:00:00,
2013-03-09 22:05:00,36.0,33.9,30.51,NE,53,0.0,0.0,92,0.00,,,0.00,WeatherCatV1.12B45,2013-03-10 06:05:00,
2013-03-09 22:10:00,35.9,33.8,30.51,NE,53,0.0,0.0,92,0.00,,,0.00,WeatherCatV1.12B45,2013-03-10 06:10:00,
2013-03-09 22:15:00,35.7,33.6,30.51,NE,53,0.0,0.0,92,0.00,,,0.00,WeatherCatV1.12B45,2013-03-10 06:15:00,
2013-03-09 22:20:00,35.5,33.4,30.51,NE,53,0.0,0.0,92,0.00,,,0.00,WeatherCatV1.12B45,2013-03-10 06:20:00,
2013-03-09 22:25:00,35.2,33.1,30.51,NE,53,0.0,0.0,92,0.00,,,0.00,WeatherCatV1.12B45,2013-03-10 06:25:00,
2013-03-09 22:30:00,35.0,32.9,30.51,NE,53,0.0,0.0,92,0.00,,,0.00,WeatherCatV1.12B45,2013-03-10 06:30:00,
2013-03-09 22:35:00,34.9,33.4,30.51,NE,53,0.0,0.0,94,0.00,,,0.00,WeatherCatV1.12B45,2013-03-10 06:35:00,
2013-03-09 22:40:00,34.8,33.0,30.51,NE,53,0.0,0.0,93,0.00,,,0.00,WeatherCatV1.12B45,2013-03-10 06:40:00,
2013-03-09 22:45:00,34.7,32.9,30.51,NE,53,0.0,0.0,93,0.00,,,0.00,WeatherCatV1.12B45,2013-03-10 06:45:00,
2013-03-09 22:50:00,34.5,32.7,30.51,NE,53,0.0,0.0,93,0.00,,,0.00,WeatherCatV1.12B45,2013-03-10 06:50:00,
2013-03-09 22:55:00,34.3,32.8,30.51,NE,53,0.0,0.0,94,0.00,,,0.00,WeatherCatV1.12B45,2013-03-10 06:55:00,
2013-03-09 23:00:00,34.1,32.6,30.52,NE,53,0.0,0.0,94,0.00,,,0.00,WeatherCatV1.12B45,2013-03-10 07:00:00,
2013-03-09 23:05:00,34.0,32.5,30.52,NE,53,0.0,0.0,94,0.00,,,0.00,WeatherCatV1.12B45,2013-03-10 07:05:00,
2013-03-09 23:10:00,33.8,32.3,30.51,NE,53,0.0,0.0,94,0.00,,,0.00,WeatherCatV1.12B45,2013-03-10 07:10:00,
2013-03-09 23:15:00,33.7,32.2,30.51,NE,53,0.0,0.0,94,0.00,,,0.00,WeatherCatV1.12B45,2013-03-10 07:15:00,
2013-03-09 23:20:00,33.5,32.2,30.51,NE,53,0.0,0.0,95,0.00,,,0.00,WeatherCatV1.12B45,2013-03-10 07:20:00,
2013-03-09 23:25:00,33.3,32.0,30.51,NE,53,0.0,0.0,95,0.00,,,0.00,WeatherCatV1.12B45,2013-03-10 07:25:00,
2013-03-09 23:30:00,33.2,31.9,30.51,NE,53,0.0,0.0,95,0.00,,,0.00,WeatherCatV1.12B45,2013-03-10 07:30:00,
2013-03-09 23:35:00,33.0,31.7,30.51,NE,53,0.0,0.0,95,0.00,,,0.00,WeatherCatV1.12B45,2013-03-10 07:35:00,
2013-03-09 23:40:00,33.0,31.7,30.51,NE,53,0.0,0.0,95,0.00,,,0.00,WeatherCatV1.12B45,2013-03-10 07:40:00,
2013-03-09 23:45:00,32.8,31.5,30.51,NE,53,0.0,0.0,95,0.00,,,0.00,WeatherCatV1.12B45,2013-03-10 07:45:00,
2013-03-09 23:50:00,32.7,31.4,30.51,NE,53,0.0,0.0,95,0.00,,,0.00,WeatherCatV1.12B45,2013-03-10 07:50:00,
2013-03-09 23:55:00,32.5,31.2,30.51,NE,53,0.0,0.0,95,0.00,,,0.00,WeatherCatV1.12B45,2013-03-10 07:55:00,